sensor_id;sensor_type;location;lat;lon;timestamp;pressure;altitude;pressure_sealevel;temperature;humidity
50592;BME280;36548;50.506;30.834;2023-01-08T00:00:13;101442.24;;;-6.27;59.88
50592;BME280;36548;50.506;30.834;2023-01-08T00:01:22;101453.56;;;-6.26;60.06
50592;BME280;36548;50.506;30.834;2023-01-08T00:02:37;101439.92;;;-6.14;60.28
50592;BME280;36548;50.506;30.834;2023-01-08T00:03:46;101446.76;;;-6.20;60.09
50592;BME280;36548;50.506;30.834;2023-01-08T00:04:55;101455.44;;;-6.21;59.86
50592;BME280;36548;50.506;30.834;2023-01-08T00:06:08;101449.38;;;-6.20;60.12
50592;BME280;36548;50.506;30.834;2023-01-08T00:07:17;101445.08;;;-6.18;60.01
50592;BME280;36548;50.506;30.834;2023-01-08T00:08:28;101459.08;;;-6.14;59.94
50592;BME280;36548;50.506;30.834;2023-01-08T00:09:38;101461.63;;;-6.17;59.61
50592;BME280;36548;50.506;30.834;2023-01-08T00:10:54;101453.83;;;-6.15;60.00
50592;BME280;36548;50.506;30.834;2023-01-08T00:12:11;101455.10;;;-5.96;59.57
50592;BME280;36548;50.506;30.834;2023-01-08T00:13:20;101460.08;;;-6.09;59.61
50592;BME280;36548;50.506;30.834;2023-01-08T00:14:31;101462.67;;;-6.10;59.56
50592;BME280;36548;50.506;30.834;2023-01-08T00:15:40;101461.70;;;-6.14;59.55
50592;BME280;36548;50.506;30.834;2023-01-08T00:16:55;101466.41;;;-5.99;59.70
50592;BME280;36548;50.506;30.834;2023-01-08T00:18:04;101466.98;;;-6.11;59.86
50592;BME280;36548;50.506;30.834;2023-01-08T00:19:14;101461.86;;;-6.08;59.80
50592;BME280;36548;50.506;30.834;2023-01-08T00:20:25;101457.53;;;-6.06;59.35
50592;BME280;36548;50.506;30.834;2023-01-08T00:21:34;101457.47;;;-6.09;59.37
50592;BME280;36548;50.506;30.834;2023-01-08T00:22:42;101456.47;;;-6.14;59.25
50592;BME280;36548;50.506;30.834;2023-01-08T00:23:52;101460.83;;;-6.14;59.07
50592;BME280;36548;50.506;30.834;2023-01-08T00:25:01;101461.63;;;-6.17;58.95
50592;BME280;36548;50.506;30.834;2023-01-08T00:26:10;101454.47;;;-6.26;59.30
50592;BME280;36548;50.506;30.834;2023-01-08T00:27:19;101450.11;;;-6.25;59.30
50592;BME280;36548;50.506;30.834;2023-01-08T00:28:29;101460.50;;;-6.28;59.14
50592;BME280;36548;50.506;30.834;2023-01-08T00:29:38;101455.20;;;-6.31;59.16
50592;BME280;36548;50.506;30.834;2023-01-08T00:30:48;101460.34;;;-6.35;59.38
50592;BME280;36548;50.506;30.834;2023-01-08T00:31:56;101456.85;;;-6.35;59.39
50592;BME280;36548;50.506;30.834;2023-01-08T00:33:11;101465.77;;;-6.27;59.43
50592;BME280;36548;50.506;30.834;2023-01-08T00:34:21;101463.69;;;-6.40;59.31
50592;BME280;36548;50.506;30.834;2023-01-08T00:35:38;101454.34;;;-6.30;59.29
50592;BME280;36548;50.506;30.834;2023-01-08T00:36:54;101455.81;;;-6.42;59.30
50592;BME280;36548;50.506;30.834;2023-01-08T00:38:03;101455.72;;;-6.46;59.17
50592;BME280;36548;50.506;30.834;2023-01-08T00:39:13;101460.87;;;-6.49;59.48
50592;BME280;36548;50.506;30.834;2023-01-08T00:40:22;101468.74;;;-6.48;59.26
50592;BME280;36548;50.506;30.834;2023-01-08T00:41:32;101459.90;;;-6.53;59.41
50592;BME280;36548;50.506;30.834;2023-01-08T00:42:43;101455.52;;;-6.54;59.17
50592;BME280;36548;50.506;30.834;2023-01-08T00:43:51;101468.50;;;-6.57;59.22
50592;BME280;36548;50.506;30.834;2023-01-08T00:45:00;101461.47;;;-6.60;59.38
50592;BME280;36548;50.506;30.834;2023-01-08T00:46:09;101458.82;;;-6.61;60.02
50592;BME280;36548;50.506;30.834;2023-01-08T00:47:18;101460.67;;;-6.57;60.31
50592;BME280;36548;50.506;30.834;2023-01-08T00:48:27;101449.48;;;-6.52;60.08
50592;BME280;36548;50.506;30.834;2023-01-08T00:49:36;101469.61;;;-6.47;59.83
50592;BME280;36548;50.506;30.834;2023-01-08T00:50:46;101461.74;;;-6.49;59.98
50592;BME280;36548;50.506;30.834;2023-01-08T00:51:54;101458.36;;;-6.45;59.83
50592;BME280;36548;50.506;30.834;2023-01-08T00:53:05;101453.14;;;-6.45;59.54
50592;BME280;36548;50.506;30.834;2023-01-08T00:54:20;101456.02;;;-6.34;59.48
50592;BME280;36548;50.506;30.834;2023-01-08T00:55:30;101454.81;;;-6.47;59.57
50592;BME280;36548;50.506;30.834;2023-01-08T00:56:39;101464.39;;;-6.47;59.62
50592;BME280;36548;50.506;30.834;2023-01-08T00:57:48;101459.97;;;-6.50;59.36
50592;BME280;36548;50.506;30.834;2023-01-08T00:58:58;101462.51;;;-6.53;59.41
50592;BME280;36548;50.506;30.834;2023-01-08T01:00:10;101464.19;;;-6.55;59.43
50592;BME280;36548;50.506;30.834;2023-01-08T01:01:19;101464.98;;;-6.59;59.53
50592;BME280;36548;50.506;30.834;2023-01-08T01:02:29;101455.44;;;-6.57;59.61
50592;BME280;36548;50.506;30.834;2023-01-08T01:03:38;101458.89;;;-6.58;59.41
50592;BME280;36548;50.506;30.834;2023-01-08T01:04:47;101460.56;;;-6.62;59.41
50592;BME280;36548;50.506;30.834;2023-01-08T01:06:03;101460.42;;;-6.66;59.79
50592;BME280;36548;50.506;30.834;2023-01-08T01:07:13;101455.13;;;-6.70;60.09
50592;BME280;36548;50.506;30.834;2023-01-08T01:08:28;101446.80;;;-6.55;60.19
50592;BME280;36548;50.506;30.834;2023-01-08T01:09:37;101457.84;;;-6.65;60.31
50592;BME280;36548;50.506;30.834;2023-01-08T01:10:46;101461.47;;;-6.60;59.98
50592;BME280;36548;50.506;30.834;2023-01-08T01:12:03;101457.35;;;-6.50;59.68
50592;BME280;36548;50.506;30.834;2023-01-08T01:13:12;101464.91;;;-6.61;59.72
50592;BME280;36548;50.506;30.834;2023-01-08T01:14:22;101450.98;;;-6.61;59.57
50592;BME280;36548;50.506;30.834;2023-01-08T01:15:31;101451.82;;;-6.62;59.51
50592;BME280;36548;50.506;30.834;2023-01-08T01:16:42;101455.20;;;-6.66;59.54
50592;BME280;36548;50.506;30.834;2023-01-08T01:17:51;101447.30;;;-6.70;59.51
50592;BME280;36548;50.506;30.834;2023-01-08T01:19:00;101453.36;;;-6.71;59.70
50592;BME280;36548;50.506;30.834;2023-01-08T01:20:12;101456.70;;;-6.76;60.07
50592;BME280;36548;50.506;30.834;2023-01-08T01:21:25;101456.70;;;-6.76;60.14
50592;BME280;36548;50.506;30.834;2023-01-08T01:22:41;101442.17;;;-6.65;59.98
50592;BME280;36548;50.506;30.834;2023-01-08T01:23:53;101453.11;;;-6.81;60.24
50592;BME280;36548;50.506;30.834;2023-01-08T01:25:08;101442.14;;;-6.66;60.44
50592;BME280;36548;50.506;30.834;2023-01-08T01:26:21;101447.23;;;-6.73;60.17
50592;BME280;36548;50.506;30.834;2023-01-08T01:27:30;101445.41;;;-6.75;60.25
50592;BME280;36548;50.506;30.834;2023-01-08T01:28:39;101439.46;;;-6.70;60.12
50592;BME280;36548;50.506;30.834;2023-01-08T01:29:48;101455.97;;;-6.71;59.88
50592;BME280;36548;50.506;30.834;2023-01-08T01:30:57;101448.89;;;-6.75;60.07
50592;BME280;36548;50.506;30.834;2023-01-08T01:32:09;101453.21;;;-6.77;60.46
50592;BME280;36548;50.506;30.834;2023-01-08T01:33:19;101448.02;;;-6.75;61.17
50592;BME280;36548;50.506;30.834;2023-01-08T01:34:35;101455.41;;;-6.59;61.18
50592;BME280;36548;50.506;30.834;2023-01-08T01:35:46;101454.40;;;-6.64;60.78
50592;BME280;36548;50.506;30.834;2023-01-08T01:36:55;101456.10;;;-6.66;60.35
50592;BME280;36548;50.506;30.834;2023-01-08T01:38:04;101443.12;;;-6.63;60.38
50592;BME280;36548;50.506;30.834;2023-01-08T01:39:13;101446.63;;;-6.61;60.06
50592;BME280;36548;50.506;30.834;2023-01-08T01:40:28;101434.81;;;-6.46;60.03
50592;BME280;36548;50.506;30.834;2023-01-08T01:42:57;101429.66;;;-6.43;60.00
50592;BME280;36548;50.506;30.834;2023-01-08T01:45:48;101420.17;;;-6.40;59.67
50592;BME280;36548;50.506;30.834;2023-01-08T01:47:00;101426.84;;;-6.51;59.39
50592;BME280;36548;50.506;30.834;2023-01-08T01:48:12;101431.09;;;-6.56;59.15
50592;BME280;36548;50.506;30.834;2023-01-08T01:49:23;101419.64;;;-6.61;59.30
50592;BME280;36548;50.506;30.834;2023-01-08T01:50:39;101440.47;;;-6.64;59.53
50592;BME280;36548;50.506;30.834;2023-01-08T01:51:52;101435.21;;;-6.66;59.60
50592;BME280;36548;50.506;30.834;2023-01-08T01:53:09;101442.14;;;-6.66;59.45
50592;BME280;36548;50.506;30.834;2023-01-08T01:54:24;101429.36;;;-6.56;59.34
50592;BME280;36548;50.506;30.834;2023-01-08T01:55:34;101438.62;;;-6.69;59.34
50592;BME280;36548;50.506;30.834;2023-01-08T01:56:46;101437.69;;;-6.71;59.25
50592;BME280;36548;50.506;30.834;2023-01-08T01:59:19;101424.73;;;-6.67;59.65
50592;BME280;36548;50.506;30.834;2023-01-08T02:00:29;101429.64;;;-6.80;60.03
50592;BME280;36548;50.506;30.834;2023-01-08T02:01:40;101436.61;;;-6.79;60.54
50592;BME280;36548;50.506;30.834;2023-01-08T02:02:51;101437.66;;;-6.72;60.40
50592;BME280;36548;50.506;30.834;2023-01-08T02:04:01;101439.50;;;-6.68;59.90
50592;BME280;36548;50.506;30.834;2023-01-08T02:05:10;101438.66;;;-6.67;59.57
50592;BME280;36548;50.506;30.834;2023-01-08T02:08:01;101447.23;;;-6.73;59.47
50592;BME280;36548;50.506;30.834;2023-01-08T02:12:31;101427.14;;;-6.75;59.74
50592;BME280;36548;50.506;30.834;2023-01-08T02:13:45;101441.69;;;-6.85;59.75
50592;BME280;36548;50.506;30.834;2023-01-08T02:18:14;101449.52;;;-6.85;60.28
50592;BME280;36548;50.506;30.834;2023-01-08T02:19:45;101440.23;;;-6.74;60.31
50592;BME280;36548;50.506;30.834;2023-01-08T02:21:07;101437.37;;;-6.83;60.23
50592;BME280;36548;50.506;30.834;2023-01-08T02:22:45;101435.95;;;-6.72;60.34
50592;BME280;36548;50.506;30.834;2023-01-08T02:24:12;101431.28;;;-6.83;60.71
50592;BME280;36548;50.506;30.834;2023-01-08T02:27:10;101440.40;;;-6.67;60.80
50592;BME280;36548;50.506;30.834;2023-01-08T02:28:21;101440.81;;;-6.86;61.17
50592;BME280;36548;50.506;30.834;2023-01-08T02:29:31;101439.32;;;-6.76;61.59
50592;BME280;36548;50.506;30.834;2023-01-08T02:30:42;101443.91;;;-6.65;60.91
50592;BME280;36548;50.506;30.834;2023-01-08T02:31:53;101437.02;;;-6.63;60.91
50592;BME280;36548;50.506;30.834;2023-01-08T02:33:08;101427.05;;;-6.43;60.34
50592;BME280;36548;50.506;30.834;2023-01-08T02:34:17;101430.30;;;-6.54;60.00
50592;BME280;36548;50.506;30.834;2023-01-08T02:35:44;101430.23;;;-6.55;59.87
50592;BME280;36548;50.506;30.834;2023-01-08T02:36:56;101439.73;;;-6.59;60.00
50592;BME280;36548;50.506;30.834;2023-01-08T02:38:08;101441.38;;;-6.62;60.03
50592;BME280;36548;50.506;30.834;2023-01-08T02:39:42;101448.30;;;-6.64;60.15
50592;BME280;36548;50.506;30.834;2023-01-08T02:41:01;101434.61;;;-6.54;60.50
50592;BME280;36548;50.506;30.834;2023-01-08T02:43:28;101456.10;;;-6.66;60.16
50592;BME280;36548;50.506;30.834;2023-01-08T02:46:22;101443.05;;;-6.66;60.77
50592;BME280;36548;50.506;30.834;2023-01-08T02:47:52;101450.19;;;-6.59;60.20
50592;BME280;36548;50.506;30.834;2023-01-08T02:49:04;101441.41;;;-6.61;60.01
50592;BME280;36548;50.506;30.834;2023-01-08T02:51:51;101440.44;;;-6.66;59.90
50592;BME280;36548;50.506;30.834;2023-01-08T02:54:31;101448.27;;;-6.66;60.15
50592;BME280;36548;50.506;30.834;2023-01-08T02:55:45;101440.92;;;-6.81;60.32
50592;BME280;36548;50.506;30.834;2023-01-08T02:57:07;101449.00;;;-6.72;60.55
50592;BME280;36548;50.506;30.834;2023-01-08T02:58:20;101449.55;;;-6.83;60.62
50592;BME280;36548;50.506;30.834;2023-01-08T02:59:38;101440.27;;;-6.72;60.80
50592;BME280;36548;50.506;30.834;2023-01-08T03:00:52;101435.70;;;-6.81;60.65
50592;BME280;36548;50.506;30.834;2023-01-08T03:02:02;101436.57;;;-6.80;60.71
50592;BME280;36548;50.506;30.834;2023-01-08T03:03:18;101442.70;;;-6.80;60.92
50592;BME280;36548;50.506;30.834;2023-01-08T03:04:42;101444.78;;;-6.65;60.90
50592;BME280;36548;50.506;30.834;2023-01-08T03:06:02;101434.14;;;-6.74;60.79
50592;BME280;36548;50.506;30.834;2023-01-08T03:07:13;101444.58;;;-6.74;60.69
50592;BME280;36548;50.506;30.834;2023-01-08T03:08:23;101442.48;;;-6.88;61.47
50592;BME280;36548;50.506;30.834;2023-01-08T03:09:33;101442.73;;;-6.78;61.34
50592;BME280;36548;50.506;30.834;2023-01-08T03:10:44;101430.62;;;-6.75;61.19
50592;BME280;36548;50.506;30.834;2023-01-08T03:12:08;101436.78;;;-6.73;60.99
50592;BME280;36548;50.506;30.834;2023-01-08T03:13:31;101444.58;;;-6.74;61.06
50592;BME280;36548;50.506;30.834;2023-01-08T03:15:06;101439.46;;;-6.70;60.89
50592;BME280;36548;50.506;30.834;2023-01-08T03:17:45;101442.28;;;-6.62;60.87
50592;BME280;36548;50.506;30.834;2023-01-08T03:18:58;101433.27;;;-6.73;61.03
50592;BME280;36548;50.506;30.834;2023-01-08T03:20:14;101439.39;;;-6.73;60.91
50592;BME280;36548;50.506;30.834;2023-01-08T03:21:24;101440.27;;;-6.72;61.27
50592;BME280;36548;50.506;30.834;2023-01-08T03:22:42;101431.16;;;-6.53;61.17
50592;BME280;36548;50.506;30.834;2023-01-08T03:23:53;101437.09;;;-6.60;60.93
50592;BME280;36548;50.506;30.834;2023-01-08T03:25:04;101442.38;;;-6.57;60.98
50592;BME280;36548;50.506;30.834;2023-01-08T03:26:19;101432.84;;;-6.55;60.85
50592;BME280;36548;50.506;30.834;2023-01-08T03:27:41;101429.45;;;-6.51;60.87
50592;BME280;36548;50.506;30.834;2023-01-08T03:28:52;101428.48;;;-6.56;60.88
50592;BME280;36548;50.506;30.834;2023-01-08T03:30:03;101424.16;;;-6.54;60.73
50592;BME280;36548;50.506;30.834;2023-01-08T03:31:15;101420.72;;;-6.53;60.91
50592;BME280;36548;50.506;30.834;2023-01-08T03:32:28;101422.52;;;-6.51;60.60
50592;BME280;36548;50.506;30.834;2023-01-08T03:33:46;101423.59;;;-6.42;60.68
50592;BME280;36548;50.506;30.834;2023-01-08T03:34:58;101425.20;;;-6.47;60.71
50592;BME280;36548;50.506;30.834;2023-01-08T03:36:17;101423.69;;;-6.38;60.48
50592;BME280;36548;50.506;30.834;2023-01-08T03:37:31;101435.62;;;-6.49;60.77
50592;BME280;36548;50.506;30.834;2023-01-08T03:38:52;101427.17;;;-6.37;60.90
50592;BME280;36548;50.506;30.834;2023-01-08T03:40:06;101439.27;;;-6.42;60.53
50592;BME280;36548;50.506;30.834;2023-01-08T03:41:19;101434.88;;;-6.43;60.44
50592;BME280;36548;50.506;30.834;2023-01-08T03:42:31;101439.20;;;-6.45;60.62
50592;BME280;36548;50.506;30.834;2023-01-08T03:43:47;101441.20;;;-6.34;60.39
50592;BME280;36548;50.506;30.834;2023-01-08T03:44:58;101434.78;;;-6.48;60.61
50592;BME280;36548;50.506;30.834;2023-01-08T03:46:17;101432.20;;;-6.46;60.58
50592;BME280;36548;50.506;30.834;2023-01-08T03:47:33;101422.05;;;-6.34;60.66
50592;BME280;36548;50.506;30.834;2023-01-08T03:48:45;101433.11;;;-6.44;60.79
50592;BME280;36548;50.506;30.834;2023-01-08T03:50:04;101429.95;;;-6.31;60.54
50592;BME280;36548;50.506;30.834;2023-01-08T03:51:14;101424.47;;;-6.42;60.40
50592;BME280;36548;50.506;30.834;2023-01-08T03:52:26;101427.91;;;-6.43;60.32
50592;BME280;36548;50.506;30.834;2023-01-08T03:53:35;101432.17;;;-6.48;60.52
50592;BME280;36548;50.506;30.834;2023-01-08T03:54:44;101435.62;;;-6.49;60.85
50592;BME280;36548;50.506;30.834;2023-01-08T03:55:55;101433.01;;;-6.49;60.57
50592;BME280;36548;50.506;30.834;2023-01-08T03:57:05;101430.39;;;-6.49;60.68
50592;BME280;36548;50.506;30.834;2023-01-08T03:58:14;101432.17;;;-6.48;60.50
50592;BME280;36548;50.506;30.834;2023-01-08T03:59:29;101427.14;;;-6.39;60.47
50592;BME280;36548;50.506;30.834;2023-01-08T04:00:39;101434.65;;;-6.53;60.55
50592;BME280;36548;50.506;30.834;2023-01-08T04:01:49;101428.55;;;-6.53;60.71
50592;BME280;36548;50.506;30.834;2023-01-08T04:03:00;101434.68;;;-6.51;60.59
50592;BME280;36548;50.506;30.834;2023-01-08T04:04:12;101433.78;;;-6.53;60.58
50592;BME280;36548;50.506;30.834;2023-01-08T04:05:28;101434.95;;;-6.40;60.73
50592;BME280;36548;50.506;30.834;2023-01-08T04:06:37;101431.16;;;-6.53;60.59
50592;BME280;36548;50.506;30.834;2023-01-08T04:07:46;101432.94;;;-6.52;60.47
50592;BME280;36548;50.506;30.834;2023-01-08T04:08:55;101438.94;;;-6.56;60.59
50592;BME280;36548;50.506;30.834;2023-01-08T04:10:05;101451.99;;;-6.56;60.63
50592;BME280;36548;50.506;30.834;2023-01-08T04:11:14;101445.83;;;-6.58;60.77
50592;BME280;36548;50.506;30.834;2023-01-08T04:12:24;101447.64;;;-6.56;60.57
50592;BME280;36548;50.506;30.834;2023-01-08T04:13:39;101445.23;;;-6.48;60.52
50592;BME280;36548;50.506;30.834;2023-01-08T04:14:48;101449.21;;;-6.62;60.48
50592;BME280;36548;50.506;30.834;2023-01-08T04:15:57;101454.36;;;-6.65;60.52
50592;BME280;36548;50.506;30.834;2023-01-08T04:17:11;101458.68;;;-6.67;60.74
50592;BME280;36548;50.506;30.834;2023-01-08T04:18:22;101449.91;;;-6.70;61.18
50592;BME280;36548;50.506;30.834;2023-01-08T04:19:32;101449.84;;;-6.73;61.27
50592;BME280;36548;50.506;30.834;2023-01-08T04:20:48;101452.87;;;-6.56;61.43
50592;BME280;36548;50.506;30.834;2023-01-08T04:21:56;101454.44;;;-6.62;61.40
50592;BME280;36548;50.506;30.834;2023-01-08T04:23:06;101456.31;;;-6.57;61.23
50592;BME280;36548;50.506;30.834;2023-01-08T04:24:16;101456.31;;;-6.57;60.81
50592;BME280;36548;50.506;30.834;2023-01-08T04:25:31;101439.23;;;-6.44;60.78
50592;BME280;36548;50.506;30.834;2023-01-08T04:26:41;101443.28;;;-6.55;60.54
50592;BME280;36548;50.506;30.834;2023-01-08T04:27:56;101442.62;;;-6.48;60.51
50592;BME280;36548;50.506;30.834;2023-01-08T04:29:05;101448.38;;;-6.61;60.57
50592;BME280;36548;50.506;30.834;2023-01-08T04:30:15;101452.77;;;-6.60;60.58
50592;BME280;36548;50.506;30.834;2023-01-08T04:31:31;101447.67;;;-6.54;60.51
50592;BME280;36548;50.506;30.834;2023-01-08T04:32:40;101441.27;;;-6.67;60.56
50592;BME280;36548;50.506;30.834;2023-01-08T04:33:50;101447.30;;;-6.70;60.72
50592;BME280;36548;50.506;30.834;2023-01-08T04:35:06;101438.86;;;-6.59;60.82
50592;BME280;36548;50.506;30.834;2023-01-08T04:36:16;101445.45;;;-6.74;60.84
50592;BME280;36548;50.506;30.834;2023-01-08T04:37:25;101439.36;;;-6.74;60.93
50592;BME280;36548;50.506;30.834;2023-01-08T04:38:35;101444.58;;;-6.74;61.04
50592;BME280;36548;50.506;30.834;2023-01-08T04:39:50;101441.38;;;-6.62;61.12
50592;BME280;36548;50.506;30.834;2023-01-08T04:41:00;101443.71;;;-6.73;61.17
50592;BME280;36548;50.506;30.834;2023-01-08T04:42:15;101442.31;;;-6.60;61.15
50592;BME280;36548;50.506;30.834;2023-01-08T04:43:26;101455.97;;;-6.71;60.99
50592;BME280;36548;50.506;30.834;2023-01-08T04:44:35;101459.30;;;-6.76;61.18
50592;BME280;36548;50.506;30.834;2023-01-08T04:45:50;101458.75;;;-6.64;61.17
50592;BME280;36548;50.506;30.834;2023-01-08T04:47:00;101448.89;;;-6.75;61.16
50592;BME280;36548;50.506;30.834;2023-01-08T04:48:08;101449.88;;;-6.71;61.03
50592;BME280;36548;50.506;30.834;2023-01-08T04:49:18;101454.16;;;-6.73;61.10
50592;BME280;36548;50.506;30.834;2023-01-08T04:50:33;101456.10;;;-6.66;61.26
50592;BME280;36548;50.506;30.834;2023-01-08T04:51:42;101453.25;;;-6.75;61.21
50592;BME280;36548;50.506;30.834;2023-01-08T04:52:58;101442.24;;;-6.63;61.30
50592;BME280;36548;50.506;30.834;2023-01-08T04:54:09;101460.21;;;-6.76;61.35
50592;BME280;36548;50.506;30.834;2023-01-08T04:55:17;101460.25;;;-6.74;61.48
50592;BME280;36548;50.506;30.834;2023-01-08T04:56:27;101458.47;;;-6.75;61.40
50592;BME280;36548;50.506;30.834;2023-01-08T04:57:37;101461.12;;;-6.74;61.24
50592;BME280;36548;50.506;30.834;2023-01-08T04:58:45;101466.30;;;-6.75;61.28
50592;BME280;36548;50.506;30.834;2023-01-08T04:59:55;101470.69;;;-6.74;61.39
50592;BME280;36548;50.506;30.834;2023-01-08T05:01:20;101460.25;;;-6.74;61.36
50592;BME280;36548;50.506;30.834;2023-01-08T05:02:31;101463.73;;;-6.74;61.25
50592;BME280;36548;50.506;30.834;2023-01-08T05:03:41;101452.52;;;-6.70;61.10
50592;BME280;36548;50.506;30.834;2023-01-08T05:04:49;101456.84;;;-6.72;61.11
50592;BME280;36548;50.506;30.834;2023-01-08T05:05:59;101466.38;;;-6.72;61.15
50592;BME280;36548;50.506;30.834;2023-01-08T05:07:08;101467.28;;;-6.72;61.29
50592;BME280;36548;50.506;30.834;2023-01-08T05:08:18;101468.98;;;-6.72;61.28
50592;BME280;36548;50.506;30.834;2023-01-08T05:09:27;101455.93;;;-6.72;61.28
50592;BME280;36548;50.506;30.834;2023-01-08T05:10:36;101466.41;;;-6.71;61.17
50592;BME280;36548;50.506;30.834;2023-01-08T05:11:52;101468.36;;;-6.63;61.31
50592;BME280;36548;50.506;30.834;2023-01-08T05:13:01;101469.75;;;-6.76;61.51
50592;BME280;36548;50.506;30.834;2023-01-08T05:14:11;101468.01;;;-6.77;61.78
50592;BME280;36548;50.506;30.834;2023-01-08T05:15:20;101469.89;;;-6.72;61.64
50592;BME280;36548;50.506;30.834;2023-01-08T05:16:35;101469.34;;;-6.58;61.47
50592;BME280;36548;50.506;30.834;2023-01-08T05:17:43;101469.92;;;-6.70;61.41
50592;BME280;36548;50.506;30.834;2023-01-08T05:18:52;101475.95;;;-6.73;61.59
50592;BME280;36548;50.506;30.834;2023-01-08T05:20:02;101466.45;;;-6.69;61.44
50592;BME280;36548;50.506;30.834;2023-01-08T05:21:17;101467.49;;;-6.62;61.68
50592;BME280;36548;50.506;30.834;2023-01-08T05:22:27;101469.06;;;-6.69;61.84
50592;BME280;36548;50.506;30.834;2023-01-08T05:23:46;101452.94;;;-6.53;61.88
50592;BME280;36548;50.506;30.834;2023-01-08T05:24:56;101456.20;;;-6.61;62.06
50592;BME280;36548;50.506;30.834;2023-01-08T05:26:06;101456.34;;;-6.55;61.91
50592;BME280;36548;50.506;30.834;2023-01-08T05:27:16;101459.16;;;-6.47;61.73
50592;BME280;36548;50.506;30.834;2023-01-08T05:28:25;101467.94;;;-6.45;61.39
50592;BME280;36548;50.506;30.834;2023-01-08T05:29:36;101455.68;;;-6.48;61.41
50592;BME280;36548;50.506;30.834;2023-01-08T05:30:51;101456.02;;;-6.34;61.03
50592;BME280;36548;50.506;30.834;2023-01-08T05:32:00;101467.80;;;-6.50;60.89
50592;BME280;36548;50.506;30.834;2023-01-08T05:33:09;101465.92;;;-6.56;60.83
50592;BME280;36548;50.506;30.834;2023-01-08T05:34:18;101461.54;;;-6.57;60.74
50592;BME280;36548;50.506;30.834;2023-01-08T05:35:34;101462.51;;;-6.53;60.98
50592;BME280;36548;50.506;30.834;2023-01-08T05:36:43;101469.16;;;-6.66;61.43
50592;BME280;36548;50.506;30.834;2023-01-08T05:37:52;101464.01;;;-6.63;61.39
50592;BME280;36548;50.506;30.834;2023-01-08T05:39:02;101467.59;;;-6.59;61.17
50592;BME280;36548;50.506;30.834;2023-01-08T05:40:11;101472.75;;;-6.61;61.21
50592;BME280;36548;50.506;30.834;2023-01-08T05:41:21;101456.28;;;-6.58;61.18
50592;BME280;36548;50.506;30.834;2023-01-08T05:42:33;101468.47;;;-6.59;61.20
50592;BME280;36548;50.506;30.834;2023-01-08T05:43:44;101469.27;;;-6.61;61.42
50592;BME280;36548;50.506;30.834;2023-01-08T05:44:58;101467.87;;;-6.47;61.63
50592;BME280;36548;50.506;30.834;2023-01-08T05:46:08;101479.82;;;-6.57;61.38
50592;BME280;36548;50.506;30.834;2023-01-08T05:47:18;101465.82;;;-6.60;61.27
50592;BME280;36548;50.506;30.834;2023-01-08T05:48:27;101474.56;;;-6.58;61.38
50592;BME280;36548;50.506;30.834;2023-01-08T05:49:37;101476.30;;;-6.59;61.25
50592;BME280;36548;50.506;30.834;2023-01-08T05:50:48;101458.86;;;-6.60;61.37
50592;BME280;36548;50.506;30.834;2023-01-08T05:51:58;101471.05;;;-6.60;61.35
50592;BME280;36548;50.506;30.834;2023-01-08T05:53:08;101476.20;;;-6.63;61.42
50592;BME280;36548;50.506;30.834;2023-01-08T05:54:17;101477.00;;;-6.66;61.55
50592;BME280;36548;50.506;30.834;2023-01-08T05:55:26;101477.03;;;-6.64;61.92
50592;BME280;36548;50.506;30.834;2023-01-08T05:56:35;101475.36;;;-6.61;61.95
50592;BME280;36548;50.506;30.834;2023-01-08T05:57:44;101478.11;;;-6.56;61.84
50592;BME280;36548;50.506;30.834;2023-01-08T05:58:54;101473.77;;;-6.56;61.87
50592;BME280;36548;50.506;30.834;2023-01-08T06:00:10;101469.75;;;-6.41;61.82
50592;BME280;36548;50.506;30.834;2023-01-08T06:01:21;101475.67;;;-6.48;61.99
50592;BME280;36548;50.506;30.834;2023-01-08T06:02:36;101476.02;;;-6.35;61.70
50592;BME280;36548;50.506;30.834;2023-01-08T06:03:45;101476.58;;;-6.48;61.70
50592;BME280;36548;50.506;30.834;2023-01-08T06:04:54;101484.45;;;-6.46;61.66
50592;BME280;36548;50.506;30.834;2023-01-08T06:06:05;101482.74;;;-6.44;61.62
50592;BME280;36548;50.506;30.834;2023-01-08T06:07:14;101486.12;;;-6.48;61.60
50592;BME280;36548;50.506;30.834;2023-01-08T06:08:30;101492.46;;;-6.39;61.87
50592;BME280;36548;50.506;30.834;2023-01-08T06:09:38;101491.31;;;-6.50;61.86
50592;BME280;36548;50.506;30.834;2023-01-08T06:10:47;101498.34;;;-6.47;61.80
50592;BME280;36548;50.506;30.834;2023-01-08T06:11:56;101493.96;;;-6.48;61.70
50592;BME280;36548;50.506;30.834;2023-01-08T06:13:08;101499.16;;;-6.50;61.67
50592;BME280;36548;50.506;30.834;2023-01-08T06:14:24;101488.11;;;-6.40;61.63
50592;BME280;36548;50.506;30.834;2023-01-08T06:15:33;101493.78;;;-6.56;61.77
50592;BME280;36548;50.506;30.834;2023-01-08T06:16:42;101493.75;;;-6.58;62.00
50592;BME280;36548;50.506;30.834;2023-01-08T06:17:51;101501.59;;;-6.58;61.98
50592;BME280;36548;50.506;30.834;2023-01-08T06:18:59;101506.81;;;-6.58;62.03
50592;BME280;36548;50.506;30.834;2023-01-08T06:20:10;101498.97;;;-6.58;62.01
50592;BME280;36548;50.506;30.834;2023-01-08T06:21:26;101487.06;;;-6.46;61.93
50592;BME280;36548;50.506;30.834;2023-01-08T06:22:36;101491.94;;;-6.60;61.93
50592;BME280;36548;50.506;30.834;2023-01-08T06:23:44;101489.25;;;-6.63;62.01
50592;BME280;36548;50.506;30.834;2023-01-08T06:24:53;101492.70;;;-6.64;62.08
50592;BME280;36548;50.506;30.834;2023-01-08T06:26:02;101490.09;;;-6.64;62.10
50592;BME280;36548;50.506;30.834;2023-01-08T06:27:12;101494.37;;;-6.66;62.10
50592;BME280;36548;50.506;30.834;2023-01-08T06:28:21;101496.91;;;-6.70;62.68
50592;BME280;36548;50.506;30.834;2023-01-08T06:29:31;101502.20;;;-6.66;62.65
50592;BME280;36548;50.506;30.834;2023-01-08T06:30:40;101488.42;;;-6.61;62.49
50592;BME280;36548;50.506;30.834;2023-01-08T06:31:49;101488.31;;;-6.65;62.24
50592;BME280;36548;50.506;30.834;2023-01-08T06:32:59;101480.52;;;-6.64;62.50